イカルイト の空港の天気 - METARとTAF

イカルイト空港 ( CYFB / YFB ) - カナダ ヌナブト準州イカルイト
飛行場実況気象(Metar)
観測時間04/21 10:00 EDT (04/21 14:00 UTC)
風向・風速北北東 5m/s
視程1600m
天気現象弱い雪
全天を覆う雲 鉛直視程 240m
気温-8℃
湿度79%
気圧1003.9hPa
METARCYFB 211400Z 03010KT 1SM R34/3500VP6000FT/D -SN VV008 M08/M11 A2963 RMK SN8 VIS VRB 3/4-1 1/4 SLP039
過去の天気等 Google飛行場航空写真 Wunderground天気予報

過去48時間のMETAR

飛行場予報(TAF)
発表時間: 4/21 07:38 EDT (4/21 11:38 UTC)
予報対象時間: 21日8時 EDT ~ 22日8時 EDT
風向・風速北西 3m/s
視程1610m
天気現象弱い雪
全天を覆う雲 鉛直視程 460m
21日8時 EDT ~ 21日15時 EDT に一時的に
視程6440m
天気現象弱い雪
全天を覆う雲 雲底高度 1220m
21日8時 EDT ~ 21日10時 EDT に徐々に
風向・風速北 7m/s
21日15時 EDT から
風向・風速北 8m/s
視程10km以上
少しの雲 雲底高度 1520m
全天の4割程度の雲 雲底高度 3050m
21日15時 EDT ~ 21日17時 EDT に一時的に
視程8050m
天気現象弱い雪
全天の8割程度の雲 雲底高度 1520m
全天を覆う雲 雲底高度 3050m
21日20時 EDT から
風向・風速北北西 11m/s
視程10km以上
天気現象高い地吹雪
少しの雲 雲底高度 910m
21日23時 EDT から
風向・風速北北西 13m/s
視程8050m
天気現象高い地吹雪
なし
TAF CYFB 211138Z 2112/2212 32005KT 1SM -SN VV015
TEMPO 2112/2119 4SM -SN OVC040
BECMG 2112/2114 35014KT
FM211900 36015KT P6SM FEW050 SCT100
TEMPO 2119/2121 5SM -SN BKN050 OVC100
FM220000 34022KT 21/2SM BLSN FEW030
FM220300 33025KT 5SM BLSN SKC RMK NXT FCST BY 211800Z